Star Endeavour I — 9V9397 — position and weather

sailwx.info

Track history (hours):
 
Tides and Currents Weather Stations Pressure Air Temp Water Temp Dewpoint Dewpoint Depression Visibility Wind Speed Wind Dir Waves Ship Positions

Star Endeavour I

Last reported at 2018-Feb-22 05:12 UTC. Time now 2018-Feb-22 13:06 UTC.
Position N 32°23' W 117°41'.

Length 163 m; draft 8.6 m.

Type: Cargo ship. MMSI: 566060000.

Date/timePositionNaut miles runAvg speedWind from/ knotsBaromVisibWave heightAir tempDewpointWater temp
2018-Feb-22 05:12N 32°23' W 117°41'421.1
2018-Feb-22 05:00N 32°27' W 117°43'1121.2
2018-Feb-22 04:30N 32°37' W 117°47'1121.4
2018-Feb-22 04:00N 32°47' W 117°52'1121.3
2018-Feb-22 03:30N 32°56' W 117°57'1121.4
2018-Feb-22 03:00N 33°06' W 118°04'917.4
2018-Feb-22 02:30N 33°14' W 118°04'1813.7
2018-Feb-22 01:12N 33°31' W 118°11'313.5
2018-Feb-22 01:00N 33°33' W 118°12'611.7
2018-Feb-22 00:30N 33°39' W 118°12'5 9.0
2018-Feb-22 00:00N 33°44' W 118°12'1 1.7
2018-Feb-21 23:29N 33°44' W 118°13'0 0.0
2018-Feb-21 22:59N 33°44' W 118°13'0 0.0
2018-Feb-21 22:29N 33°44' W 118°13'0 0.0
2018-Feb-21 21:59N 33°44' W 118°13'0 0.0
2018-Feb-21 21:29N 33°44' W 118°13'0 0.1
2018-Feb-21 20:59N 33°44' W 118°13'0 0.0
2018-Feb-21 20:29N 33°44' W 118°13'0 0.0
2018-Feb-21 19:59N 33°44' W 118°13'1 2.9
2018-Feb-21 19:30N 33°43' W 118°11'4 8.4
2018-Feb-21 19:00N 33°39' W 118°12'510.8
2018-Feb-21 18:30N 33°36' W 118°18'713.5
2018-Feb-21 18:00N 33°39' W 118°25'815.8
2018-Feb-21 17:31N 33°42' W 118°34'815.2
2018-Feb-21 17:00N 33°46' W 118°42'713.4
2018-Feb-21 16:30N 33°49' W 118°49'712.9
2018-Feb-21 16:00N 33°53' W 118°56'612.9
2018-Feb-21 15:30N 33°56' W 119°02'612.1
2018-Feb-21 15:00N 33°59' W 119°09'611.8
2018-Feb-21 14:30N 34°02' W 119°14'612.1
2018-Feb-21 13:59N 34°08' W 119°13'1 0.7
2018-Feb-21 12:35N 34°09' W 119°12'0 0.0
2018-Feb-21 02:50N 34°09' W 119°12'0 0.0
2018-Feb-21 02:29N 34°09' W 119°12'0 0.0
2018-Feb-21 01:56N 34°09' W 119°12'0 0.0
2018-Feb-21 00:08N 34°09' W 119°12'0 0.0
2018-Feb-20 23:50N 34°09' W 119°12'0 0.0
2018-Feb-20 22:44N 34°09' W 119°12'0 0.0
2018-Feb-20 16:50N 34°09' W 119°12'0 0.0
2018-Feb-20 11:32N 34°09' W 119°12'0 0.0
2018-Feb-20 11:09N 34°09' W 119°12'0 0.0
2018-Feb-20 11:00N 34°09' W 119°12'0 0.0
2018-Feb-20 10:28N 34°09' W 119°12'0 0.0
2018-Feb-20 09:59N 34°09' W 119°12'0 0.0
2018-Feb-20 09:29N 34°09' W 119°12'0 0.0
2018-Feb-20 09:00N 34°09' W 119°12'0 0.0
2018-Feb-20 08:24N 34°09' W 119°12'0 0.0
2018-Feb-20 08:00N 34°09' W 119°12'0 0.0
2018-Feb-20 07:29N 34°09' W 119°12'0 0.0
2018-Feb-20 06:55N 34°09' W 119°12'0 0.0
2018-Feb-20 06:30N 34°09' W 119°12'0 0.0
2018-Feb-20 06:00N 34°09' W 119°12'0 0.0
2018-Feb-20 05:30N 34°09' W 119°12'0 0.0
2018-Feb-20 04:58N 34°09' W 119°12'0 0.0
2018-Feb-20 04:30N 34°09' W 119°12'0 0.0
2018-Feb-20 04:00N 34°09' W 119°12'0 0.0
2018-Feb-20 03:26N 34°09' W 119°12'0 0.0
2018-Feb-20 02:58N 34°09' W 119°12'0 0.0
2018-Feb-20 02:26N 34°09' W 119°12'0 0.0
2018-Feb-20 02:00N 34°09' W 119°12'0 0.0
2018-Feb-20 01:29N 34°09' W 119°12'0 0.0
2018-Feb-20 01:00N 34°09' W 119°12'0 0.0
2018-Feb-20 00:29N 34°09' W 119°12'0 0.0
2018-Feb-19 23:59N 34°09' W 119°12'0 0.0
2018-Feb-19 23:28N 34°09' W 119°12'0 0.0
2018-Feb-19 23:00N 34°09' W 119°12'0 0.0
2018-Feb-19 22:28N 34°09' W 119°12'0 0.0
2018-Feb-19 22:00N 34°09' W 119°12'0 0.0
2018-Feb-19 21:29N 34°09' W 119°12'0 0.0
2018-Feb-19 21:00N 34°09' W 119°12'0 0.0
2018-Feb-19 20:25N 34°09' W 119°12'0 0.0
2018-Feb-19 19:59N 34°09' W 119°12'0 0.0
2018-Feb-19 19:29N 34°09' W 119°12'0 0.0
2018-Feb-19 18:58N 34°09' W 119°12'0 0.0
2018-Feb-19 18:26N 34°09' W 119°12'0 0.0
2018-Feb-19 17:59N 34°09' W 119°12'0 0.0
2018-Feb-19 17:26N 34°09' W 119°12'0 0.0
2018-Feb-19 17:00N 34°09' W 119°12'0 0.0
2018-Feb-19 16:29N 34°09' W 119°12'0 0.0
2018-Feb-19 16:00N 34°09' W 119°12'0 0.0
2018-Feb-19 15:27N 34°09' W 119°12'0 0.0
2018-Feb-19 14:52N 34°09' W 119°12'0 0.0
2018-Feb-19 14:21N 34°09' W 119°12'0 0.3
2018-Feb-19 13:58N 34°09' W 119°12'0 0.0
2018-Feb-19 13:29N 34°09' W 119°12'0 0.0
2018-Feb-19 12:58N 34°09' W 119°12'0 0.0
2018-Feb-19 12:29N 34°09' W 119°12'0 0.0
2018-Feb-19 12:00N 34°09' W 119°12'0 0.0
2018-Feb-19 11:28N 34°09' W 119°12'0 0.0
2018-Feb-19 10:58N 34°09' W 119°12'0 0.0
2018-Feb-19 10:30N 34°09' W 119°12'0 0.0
2018-Feb-19 10:00N 34°09' W 119°12'0 0.0
2018-Feb-19 09:25N 34°09' W 119°12'0 0.0
2018-Feb-19 08:57N 34°09' W 119°12'0 0.0
2018-Feb-19 08:23N 34°09' W 119°12'0 0.0
2018-Feb-19 08:00N 34°09' W 119°12'0 0.0
2018-Feb-19 07:30N 34°09' W 119°12'0 0.0
2018-Feb-19 07:00N 34°09' W 119°12'0 0.0
2018-Feb-19 06:26N 34°09' W 119°12'0 0.0
2018-Feb-19 06:00N 34°09' W 119°12'0 0.0
2018-Feb-19 05:26N 34°09' W 119°12'0 0.0
2018-Feb-19 05:00N 34°09' W 119°12'0 0.0
2018-Feb-19 04:30N 34°09' W 119°12'0 0.0
2018-Feb-19 03:57N 34°09' W 119°12'0 0.0
2018-Feb-19 03:30N 34°09' W 119°12'0 0.0
2018-Feb-19 02:45N 34°09' W 119°12'0 0.0
2018-Feb-19 02:27N 34°09' W 119°12'0 0.0
2018-Feb-19 02:00N 34°09' W 119°12'0 0.0
2018-Feb-19 01:30N 34°09' W 119°12'0 0.0
2018-Feb-19 01:00N 34°09' W 119°12'0 0.0
2018-Feb-19 00:27N 34°09' W 119°12'0 0.0
2018-Feb-18 23:57N 34°09' W 119°12'0 0.3
2018-Feb-18 23:28N 34°09' W 119°12'3 6.4
2018-Feb-18 22:58N 34°06' W 119°15'510.7
2018-Feb-18 22:28N 34°01' W 119°17'511.6
2018-Feb-18 22:00N 33°58' W 119°11'510.3
2018-Feb-18 21:29N 33°55' W 119°07'4 7.5
2018-Feb-18 21:00N 33°51' W 119°04'4 7.5
2018-Feb-18 20:27N 33°48' W 119°02'4 7.8
2018-Feb-18 19:55N 33°44' W 118°60'3 7.7
2018-Feb-18 19:30N 33°41' W 118°58'5 9.7
2018-Feb-18 19:00N 33°37' W 118°55'611.0
2018-Feb-18 18:30N 33°32' W 118°51'610.7
2018-Feb-18 17:57N 33°28' W 118°46'510.5
2018-Feb-18 17:27N 33°24' W 118°42'510.7
2018-Feb-18 16:58N 33°20' W 118°38'610.6
2018-Feb-18 16:25N 33°16' W 118°33'510.6
2018-Feb-18 15:58N 33°13' W 118°29'510.5
2018-Feb-18 15:30N 33°09' W 118°25'510.3
2018-Feb-18 15:00N 33°05' W 118°21'510.7
2018-Feb-18 14:30N 33°01' W 118°17'511.1
2018-Feb-18 14:00N 32°57' W 118°13'611.9
2018-Feb-18 13:30N 32°53' W 118°08'612.7
2018-Feb-18 13:00N 32°48' W 118°03'613.0
2018-Feb-18 12:30N 32°43' W 117°58'816.8
2018-Feb-18 12:00N 32°37' W 117°51'918.6
2018-Feb-18 11:30N 32°29' W 117°46'1018.9
2018-Feb-18 11:00N 32°20' W 117°42'1618.7
2018-Feb-18 10:10N 32°05' W 117°36'418.5
2018-Feb-18 09:56N 32°01' W 117°35'3318.6
2018-Feb-18 08:10N 31°30' W 117°20'318.7
2018-Feb-18 08:00N 31°28' W 117°19'918.7
2018-Feb-18 07:31N 31°19' W 117°15'918.5
2018-Feb-18 07:01N 31°10' W 117°12'918.5
2018-Feb-18 06:30N 31°01' W 117°08'918.5
2018-Feb-18 06:00N 30°53' W 117°04'5018.7
2018-Feb-18 03:20N 30°06' W 116°43'  
Track history (hours):
 
Tides and Currents Weather Stations Pressure Air Temp Water Temp Dewpoint Dewpoint Depression Visibility Wind Speed Wind Dir Waves Ship Positions

Star Endeavour I

Last reported at 2018-Feb-22 05:12 UTC. Time now 2018-Feb-22 13:06 UTC.
Position N 32°23' W 117°41'.

Length 163 m; draft 8.6 m.

Type: Cargo ship. MMSI: 566060000.

Date/timePositionNaut miles runAvg speedWind from/ knotsBaromVisibWave heightAir tempDewpointWater temp
2018-Feb-22 05:12N 32°23' W 117°41'421.1
2018-Feb-22 05:00N 32°27' W 117°43'1121.2
2018-Feb-22 04:30N 32°37' W 117°47'1121.4
2018-Feb-22 04:00N 32°47' W 117°52'1121.3
2018-Feb-22 03:30N 32°56' W 117°57'1121.4
2018-Feb-22 03:00N 33°06' W 118°04'917.4
2018-Feb-22 02:30N 33°14' W 118°04'1813.7
2018-Feb-22 01:12N 33°31' W 118°11'313.5
2018-Feb-22 01:00N 33°33' W 118°12'611.7
2018-Feb-22 00:30N 33°39' W 118°12'5 9.0
2018-Feb-22 00:00N 33°44' W 118°12'1 1.7
2018-Feb-21 23:29N 33°44' W 118°13'0 0.0
2018-Feb-21 22:59N 33°44' W 118°13'0 0.0
2018-Feb-21 22:29N 33°44' W 118°13'0 0.0
2018-Feb-21 21:59N 33°44' W 118°13'0 0.0
2018-Feb-21 21:29N 33°44' W 118°13'0 0.1
2018-Feb-21 20:59N 33°44' W 118°13'0 0.0
2018-Feb-21 20:29N 33°44' W 118°13'0 0.0
2018-Feb-21 19:59N 33°44' W 118°13'1 2.9
2018-Feb-21 19:30N 33°43' W 118°11'4 8.4
2018-Feb-21 19:00N 33°39' W 118°12'510.8
2018-Feb-21 18:30N 33°36' W 118°18'713.5
2018-Feb-21 18:00N 33°39' W 118°25'815.8
2018-Feb-21 17:31N 33°42' W 118°34'815.2
2018-Feb-21 17:00N 33°46' W 118°42'713.4
2018-Feb-21 16:30N 33°49' W 118°49'712.9
2018-Feb-21 16:00N 33°53' W 118°56'612.9
2018-Feb-21 15:30N 33°56' W 119°02'612.1
2018-Feb-21 15:00N 33°59' W 119°09'611.8
2018-Feb-21 14:30N 34°02' W 119°14'612.1
2018-Feb-21 13:59N 34°08' W 119°13'1 0.7
2018-Feb-21 12:35N 34°09' W 119°12'0 0.0
2018-Feb-21 02:50N 34°09' W 119°12'0 0.0
2018-Feb-21 02:29N 34°09' W 119°12'0 0.0
2018-Feb-21 01:56N 34°09' W 119°12'0 0.0
2018-Feb-21 00:08N 34°09' W 119°12'0 0.0
2018-Feb-20 23:50N 34°09' W 119°12'0 0.0
2018-Feb-20 22:44N 34°09' W 119°12'0 0.0
2018-Feb-20 16:50N 34°09' W 119°12'0 0.0
2018-Feb-20 11:32N 34°09' W 119°12'0 0.0
2018-Feb-20 11:09N 34°09' W 119°12'0 0.0
2018-Feb-20 11:00N 34°09' W 119°12'0 0.0
2018-Feb-20 10:28N 34°09' W 119°12'0 0.0
2018-Feb-20 09:59N 34°09' W 119°12'0 0.0
2018-Feb-20 09:29N 34°09' W 119°12'0 0.0
2018-Feb-20 09:00N 34°09' W 119°12'0 0.0
2018-Feb-20 08:24N 34°09' W 119°12'0 0.0
2018-Feb-20 08:00N 34°09' W 119°12'0 0.0
2018-Feb-20 07:29N 34°09' W 119°12'0 0.0
2018-Feb-20 06:55N 34°09' W 119°12'0 0.0
2018-Feb-20 06:30N 34°09' W 119°12'0 0.0
2018-Feb-20 06:00N 34°09' W 119°12'0 0.0
2018-Feb-20 05:30N 34°09' W 119°12'0 0.0
2018-Feb-20 04:58N 34°09' W 119°12'0 0.0
2018-Feb-20 04:30N 34°09' W 119°12'0 0.0
2018-Feb-20 04:00N 34°09' W 119°12'0 0.0
2018-Feb-20 03:26N 34°09' W 119°12'0 0.0
2018-Feb-20 02:58N 34°09' W 119°12'0 0.0
2018-Feb-20 02:26N 34°09' W 119°12'0 0.0
2018-Feb-20 02:00N 34°09' W 119°12'0 0.0
2018-Feb-20 01:29N 34°09' W 119°12'0 0.0
2018-Feb-20 01:00N 34°09' W 119°12'0 0.0
2018-Feb-20 00:29N 34°09' W 119°12'0 0.0
2018-Feb-19 23:59N 34°09' W 119°12'0 0.0
2018-Feb-19 23:28N 34°09' W 119°12'0 0.0
2018-Feb-19 23:00N 34°09' W 119°12'0 0.0
2018-Feb-19 22:28N 34°09' W 119°12'0 0.0
2018-Feb-19 22:00N 34°09' W 119°12'0 0.0
2018-Feb-19 21:29N 34°09' W 119°12'0 0.0
2018-Feb-19 21:00N 34°09' W 119°12'0 0.0
2018-Feb-19 20:25N 34°09' W 119°12'0 0.0
2018-Feb-19 19:59N 34°09' W 119°12'0 0.0
2018-Feb-19 19:29N 34°09' W 119°12'0 0.0
2018-Feb-19 18:58N 34°09' W 119°12'0 0.0
2018-Feb-19 18:26N 34°09' W 119°12'0 0.0
2018-Feb-19 17:59N 34°09' W 119°12'0 0.0
2018-Feb-19 17:26N 34°09' W 119°12'0 0.0
2018-Feb-19 17:00N 34°09' W 119°12'0 0.0
2018-Feb-19 16:29N 34°09' W 119°12'0 0.0
2018-Feb-19 16:00N 34°09' W 119°12'0 0.0
2018-Feb-19 15:27N 34°09' W 119°12'0 0.0
2018-Feb-19 14:52N 34°09' W 119°12'0 0.0
2018-Feb-19 14:21N 34°09' W 119°12'0 0.3
2018-Feb-19 13:58N 34°09' W 119°12'0 0.0
2018-Feb-19 13:29N 34°09' W 119°12'0 0.0
2018-Feb-19 12:58N 34°09' W 119°12'0 0.0
2018-Feb-19 12:29N 34°09' W 119°12'0 0.0
2018-Feb-19 12:00N 34°09' W 119°12'0 0.0
2018-Feb-19 11:28N 34°09' W 119°12'0 0.0
2018-Feb-19 10:58N 34°09' W 119°12'0 0.0
2018-Feb-19 10:30N 34°09' W 119°12'0 0.0
2018-Feb-19 10:00N 34°09' W 119°12'0 0.0
2018-Feb-19 09:25N 34°09' W 119°12'0 0.0
2018-Feb-19 08:57N 34°09' W 119°12'0 0.0
2018-Feb-19 08:23N 34°09' W 119°12'0 0.0
2018-Feb-19 08:00N 34°09' W 119°12'0 0.0
2018-Feb-19 07:30N 34°09' W 119°12'0 0.0
2018-Feb-19 07:00N 34°09' W 119°12'0 0.0
2018-Feb-19 06:26N 34°09' W 119°12'0 0.0
2018-Feb-19 06:00N 34°09' W 119°12'0 0.0
2018-Feb-19 05:26N 34°09' W 119°12'0 0.0
2018-Feb-19 05:00N 34°09' W 119°12'0 0.0
2018-Feb-19 04:30N 34°09' W 119°12'0 0.0
2018-Feb-19 03:57N 34°09' W 119°12'0 0.0
2018-Feb-19 03:30N 34°09' W 119°12'0 0.0
2018-Feb-19 02:45N 34°09' W 119°12'0 0.0
2018-Feb-19 02:27N 34°09' W 119°12'0 0.0
2018-Feb-19 02:00N 34°09' W 119°12'0 0.0
2018-Feb-19 01:30N 34°09' W 119°12'0 0.0
2018-Feb-19 01:00N 34°09' W 119°12'0 0.0
2018-Feb-19 00:27N 34°09' W 119°12'0 0.0
2018-Feb-18 23:57N 34°09' W 119°12'0 0.3
2018-Feb-18 23:28N 34°09' W 119°12'3 6.4
2018-Feb-18 22:58N 34°06' W 119°15'510.7
2018-Feb-18 22:28N 34°01' W 119°17'511.6
2018-Feb-18 22:00N 33°58' W 119°11'510.3
2018-Feb-18 21:29N 33°55' W 119°07'4 7.5
2018-Feb-18 21:00N 33°51' W 119°04'4 7.5
2018-Feb-18 20:27N 33°48' W 119°02'4 7.8
2018-Feb-18 19:55N 33°44' W 118°60'3 7.7
2018-Feb-18 19:30N 33°41' W 118°58'5 9.7
2018-Feb-18 19:00N 33°37' W 118°55'611.0
2018-Feb-18 18:30N 33°32' W 118°51'610.7
2018-Feb-18 17:57N 33°28' W 118°46'510.5
2018-Feb-18 17:27N 33°24' W 118°42'510.7
2018-Feb-18 16:58N 33°20' W 118°38'610.6
2018-Feb-18 16:25N 33°16' W 118°33'510.6
2018-Feb-18 15:58N 33°13' W 118°29'510.5
2018-Feb-18 15:30N 33°09' W 118°25'510.3
2018-Feb-18 15:00N 33°05' W 118°21'510.7
2018-Feb-18 14:30N 33°01' W 118°17'511.1
2018-Feb-18 14:00N 32°57' W 118°13'611.9
2018-Feb-18 13:30N 32°53' W 118°08'612.7
2018-Feb-18 13:00N 32°48' W 118°03'613.0
2018-Feb-18 12:30N 32°43' W 117°58'816.8
2018-Feb-18 12:00N 32°37' W 117°51'918.6
2018-Feb-18 11:30N 32°29' W 117°46'1018.9
2018-Feb-18 11:00N 32°20' W 117°42'1618.7
2018-Feb-18 10:10N 32°05' W 117°36'418.5
2018-Feb-18 09:56N 32°01' W 117°35'3318.6
2018-Feb-18 08:10N 31°30' W 117°20'318.7
2018-Feb-18 08:00N 31°28' W 117°19'918.7
2018-Feb-18 07:31N 31°19' W 117°15'918.5
2018-Feb-18 07:01N 31°10' W 117°12'918.5
2018-Feb-18 06:30N 31°01' W 117°08'918.5
2018-Feb-18 06:00N 30°53' W 117°04'5018.7
2018-Feb-18 03:20N 30°06' W 116°43'  

Dump ship's entire track history